Timeline UpdatesTrip UpdatesNews PostsPvt PostsTravel TipsAdmin PostsConv PostsFollowed PostsChat RequestsBlog PostsPNR Posts

Disclaimer
Search
 
 
Wed Sep 3, 2014 07:39:53 ISTHomeTrainsΣChainsAtlasPNRForumGalleryNewsFAQTripsMembersLoginFeedback
No Recent News for this Train
Other Trains in the News **new
Latest...
.
Tue Sep 02, 2014 (11:54AM)
⇐ Return Journey: Train# 18478

18477/Kalinga Utkal Express

Time-Table HAS CHANGED.
Sep 01 (2:00PM)
Change Departure Station:
Change Arrival Station:
Post a Train Travel TipPost a Train Travel Tip **new
Post a Comment/Question/Picture/VideoPost a Comment/Question/Picture/Video
Pantry/Catering
✓ Pantry Car Avbl
✓ Catering Avbl
RSA - Rake Sharing
Rake/Coach Composition
Coach Composition:ENG-SLR-GS-GS-A1-B2-B1-S12-S11-S10-PC-S9-S8-S7-S6-S5-S4-S3-S2-S1-GS-SLR. By DJ 132 Entry# 701081
Loco
PURI-NZM: TKD WAP-7 NZM-HW: LDH WDM-3A
News    PNR    Forum    Time-Table    Availability    Fare Chart    Map    Arr/Dep History    Trips    Gallery    ΣChains    X/O    Timeline    
Travel Time: 29h 10m    38 halts    Distance: 1387 km    Avg Speed: 47 km/hr
Type: Mail/Express
Zone: ECoR/East Coast
Departs @ 15:45
Platform# 2
SMTWTFS
Bilaspur Junction/BSP 
Arrives @ 20:55 +1 night
Platform# 2
SMTWTFS
Haridwar Junction/HW 

38 halts. 184 intermediate Stations between Bilaspur Junction and Haridwar Junction

Show ALL intermediate Stations  Show Old Time-Table

#CodeStation NameX/OArrivesAvgDepartsAvgHaltPFDay#KmSpeedElevZoneAddress
1PURIPuri (5)  -20:55-51-984.24912mECoRPuri, Odisha
2SILSakhi Gopal (3)  21:15-21:16-1m--1-967.84810mECoRPuri, Odisha
3KURKhurda Road Junction (7)X  21:50-21:55-5m--1-940.35725mECoRKhordha, Odisha
4BBSBhubaneswar (4)X  22:20 22:15-22:25 22:30-5 15m41-921.46740mECoRBhubaneshwar, Odisha
5CTCCuttack Junction (5)  22:50 22:55-22:55 23:00-5m11-893.58528mECoRCuttack, Odisha
6JJKRJajpur Keonjhar Road (4)  23:51-23:52-1m--1-821.54036mECoRJajpur, Odisha
7BHCBhadrak (4)X  00:58-01:00-2m--2-777.98323mECoRBhadrak, Odisha
8SOROSoroX  01:21-01:22-1m--2-748.97214mSERSoro, Odisha
9BLSBalasore (4)X  01:50-01:55-5m--2-715.47019mSERBalasore, Odisha
10BTSBasta (3)X  02:19-02:20-1m--2-687.46916mSERBasta, Odisha
11JERJaleswar (4)X  02:37-02:38-1m--2-667.98313mSERJaleswar, Odisha
12HIJHijli (2)  03:25-03:26-1m--2-603.25048mSERdist - paschim medinipur, West Bengal
13CKUChakulia (4)  04:47-04:48-1m--2-535.480126mSERChakulia, Jharkhand
14GTSGhatsila (3)X  05:11-05:12-1m--2-504.845103mSEREast Singhbhum, Jharkhand
15TATATatanagar Junction (5)  06:05 06:00-06:10-5 10m32-468.758164mSER91-657-2423026, Jharkhand
16SINISini Junction (3)X  06:37 06:38-06:38 06:39-1m--2-441.754182mSERNational Highway 33, Jharkhand
17RKSNRajkharsawan Junction (3)  06:54 06:56-06:55 06:57-1m--2-426.552189mSERSaraikela Kharswan District, Jharkhand
18CKPChakradharpur (3)X  07:20-07:30-10m--2-406.484235mSERChakradharpur (West Singhbhum), Jharkhand
19GOLGoilkera (2)  07:54-07:55-1m--2-372.655333mSERGoilkera, Jharkhand
20MOUManoharpur  08:25-08:26-1m--2-345.170228mSERManoharpur, Jharkhand
21BZRBisra  08:50 08:48-08:51 08:49-1m--2-319.451224mSERSundargarh, Odisha
22BNDMBondamunda (2)  08:55 08:58-08:56 08:59-1m--2-311.924213mSERRourkela, Odisha
23ROURourkela Junction (5)X  09:15-09:30-15m12-305.466198mSERRourkela, Odisha
24GPRaj Gangpur (3)  09:57-09:58-1m12-275.674237mSERRaj Ganpur, Odisha
25BMBBamra (3)  10:26-10:27-1m--2-240.935259mSERBamra PH : 06642-229268, Odisha
26JSGJharsuguda Junction (5)X  11:30-11:40-10m--2-204.458236mSERJharsuguda, Odisha
27BRJNBrajrajnagarX  11:49 11:52-11:50 11:53-1m--2-192.759212mSECRBrajrajnagar, Odisha
28BPHBelpahar  11:59 12:02-12:00 12:03-1m--2-183.883235mSECRBelpahar, Odisha
29RIGRaigarh (3)X  12:36 12:40-12:41 12:45-5m22-132.875220mSECRRaigarh, Chhattisgarh
30KHSKharsia  13:04 13:12-13:05 13:13-1m--2-98.866259mSECRNational Highway 200, Chhattisgarh
31SKTSakti (4)  13:18 13:27-13:19 13:28-1m--2-83.469237mSECRJanjgir-Champa, Chhattisgarh
32BUABaradwar  13:31 13:41-13:32 13:42-1m--2-68.552256mSECRJanjgir-Champa, Chhattisgarh
33CPHChampa Junction (3)  13:49 14:00-13:54 14:05-5m22-53.054264mSECRNational Highway 200 (07819-245767), Chhattisgarh
34NIANaila  14:04 14:17-14:05 14:18-1m--2-42.269273mSECRJanjgir, Chhattisgarh
35AKTAkaltara (4)  14:18 14:31-14:19 14:32-1m--2-27.228284mSECRDist. Janjgir Champa, Chhattisgarh
36BSP»Bilaspur Junction (8)»  15:10 15:30-15:25 15:45-15m220.077271mSECRBilaspur, Chhattisgarh
37KGBKargi Road  15:57 16:10-15:58 16:11-1m--232.053327mSECRBilaspur, Chhattisgarh
38BIGBelgahna  16:18 16:29-16:19 16:30-1m--247.846327mSECRBilaspur, Chhattisgarh
39PNDPendra Road  17:25 17:40-17:30 17:45-5m92101.561620mSECRBilaspur district, Chhattisgarh
40APRAnuppur Junction (4)X  18:20 18:35-18:25 18:40-5m--2152.776487mSECRAnuppur, Madhya Pradesh
41AALAmlaiX  18:35 18:50-18:36 18:51-1m--2165.452495mSECRAnuppur, Madhya Pradesh
42BUHBurhar  18:46 19:01-18:47 19:02-1m--2174.135494mSECRBurhar, Madhya Pradesh
43SDLShahdolX  19:25 19:35-19:30 19:40-5m--2193.664466mSECR, Madhya Pradesh
44BRSBirsinghpur  20:05 20:15-20:06 20:16-1m--2231.048461mSECRPali, Madhya Pradesh
45NRZBNowrozabadX  20:15 20:25-20:16 20:26-1m--2238.252458mSECRNational Highway 78, Madhya Pradesh
46UMRUmaria (3)  20:45 20:52-20:50 20:57-5m22260.852469mSECRUmaria, Madhya Pradesh
47CHDChandia Road (1)X  21:09 21:19-21:10 21:20-1m12279.825406mSECRNational Highway 78, Madhya Pradesh
48KMZKatni Murwara  22:55-23:10-15m--2319.670385mWCRMP 483504 ?, Madhya Pradesh
49DMODamoh (2)X  00:43-00:45-2m--3428.875365mWCRDamoh, Madhya Pradesh
50PHAPatharia  01:05 01:06-01:07 01:08-2m--3454.962382mWCRState Highway 14, Madhya Pradesh
51SGOSaugor (2)X  01:57-02:00-3m--3505.855519mWCRMP 470001Madhya pradesh, Madhya Pradesh
52KYEKhurai (5)XO  02:58-03:00-2m--3558.622439mWCRKhurai, Madhya Pradesh
53MAKRMalkheri Junction (2)  04:05 03:46-04:07 03:47-2 1m--3575.957421mWCRGuna, Madhya Pradesh
54LARLalitpur (3)X  05:09 04:54-05:10 04:55-1m33639.066373mNCRLalitpur, Uttar Pradesh
55TBTTalbahat (4)X  05:31-05:33-2m--3678.9125314mNCRKhaniyadhana Station Rd, Madhya Pradesh
56BABBabina (3)X  05:54 05:45-05:55 05:46-1m13703.945285mNCRBabina, Uttar Pradesh
57JHSJhansi Junction (7)X  06:35 06:20-06:43 06:30-8 10m43729.472259mNCRJhansi, Uttar Pradesh
58DAADatia (2)  07:06 06:51-07:07 06:52-1m--3754.479264mNCRDatia, Madhya Pradesh
59DBADabra (3)  07:29 07:15-07:30 07:16-1m13784.869 NCRDabra(District-Gwalior), Madhya Pradesh
60GWLGwalior Junction (4)  08:35 07:53-08:40 07:58-5m23827.189214mNCRGwalior, Madhya Pradesh
61MRAMorena (3)O  09:08 08:24-09:09 08:25-1m23865.667176mNCRMorena, Madhya Pradesh
62DHODholpur Junction (3)XO  09:33 08:49-09:34 08:50-1m13892.527177mNCRDholpur, Rajasthan
63AGCAgra Cantt. (6)X  10:45-10:53-8m33945.124174mNCRAgra, Uttar Pradesh
64RKMRaja Ki Mandi (4)  11:03-11:04-1m13949.169170mNCRAgra, Uttar Pradesh
65MTJMathura Junction (10)X  11:47-11:52-5m23998.761179mNCRMathura, Uttar Pradesh
66FDBFaridabad (4)X  13:30 13:44-13:31 13:45-1m231111.923206mNRold Faridabad, Haryana
67NZMDelhi Hazrat Nizamuddin (7)X14:05 14:40-14:35 15:10-30m131132.737209mNRNew Delhi 110013, Delhi NCT
68GZBGhaziabad Junction (6)  15:11 15:48-15:13 15:50-2m131156.145217mNRGhaziabad, Uttar Pradesh
69MTCMeerut City Junction (6)X  15:55 16:53-16:00 16:56-5 3m131203.443229mNRMeerut, Uttar Pradesh
70MUTMeerut Cantt. (2) new halt!!  17:02-17:03-1m--31207.770230mNRMeerut, Uttar Pradesh
71MOZMuzaffarnagar (3)O  16:52 17:47-16:53 17:48-1m131258.941247mNRMuzaffarNagar, Uttar Pradesh
72DBDDeoband (2)X  18:11 18:23-18:12 18:24-1m131283.050258mNRSaharanpur, Uttar Pradesh
73TPZTapri Junction (2)  19:01 18:57-19:02 18:58-1m231310.653274mNRTapri -Saharanpur, Uttar Pradesh
74RKRoorkee (3)X  19:37 19:34-19:38 19:35-1m331342.734264mNRRoorkee - 247667, Uttarakhand
75HW•Haridwar Junction (9)•  20:30 20:55--231387.4-294mNRHaridwar, Uttarakhand
Scroll to Top
Scroll to Bottom